createdAt,value
2023-01-22T00:02:05.819Z,0.47
2023-01-22T00:04:32.755Z,0.45
2023-01-22T00:06:59.202Z,0.44
2023-01-22T00:09:25.742Z,0.42
2023-01-22T00:11:52.560Z,0.42
2023-01-22T00:14:19.050Z,0.41
2023-01-22T00:16:45.513Z,0.41
2023-01-22T00:19:11.977Z,0.41
2023-01-22T00:21:38.435Z,0.47
2023-01-22T00:24:05.067Z,0.50
2023-01-22T00:26:31.495Z,0.49
2023-01-22T00:28:58.012Z,0.50
2023-01-22T00:31:24.563Z,0.52
2023-01-22T00:33:51.132Z,0.51
2023-01-22T00:36:20.169Z,0.52
2023-01-22T00:38:47.141Z,0.50
2023-01-22T00:41:14.987Z,0.51
2023-01-22T00:43:41.985Z,0.52
2023-01-22T00:46:10.482Z,0.51
2023-01-22T00:48:37.416Z,0.53
2023-01-22T00:51:05.035Z,0.50
2023-01-22T00:53:31.522Z,0.49
2023-01-22T00:56:00.779Z,0.50
2023-01-22T00:58:28.096Z,0.52
2023-01-22T01:00:55.446Z,0.49
2023-01-22T01:03:31.248Z,0.46
2023-01-22T01:05:57.625Z,0.46
2023-01-22T01:08:25.012Z,0.47
2023-01-22T01:11:00.047Z,0.45
2023-01-22T01:13:28.051Z,0.43
2023-01-22T01:16:06.890Z,0.41
2023-01-22T01:18:34.506Z,0.38
2023-01-22T01:21:01.234Z,0.37
2023-01-22T01:23:28.578Z,0.36
2023-01-22T01:25:55.513Z,0.38
2023-01-22T01:28:22.600Z,0.38
2023-01-22T01:30:49.103Z,0.36
2023-01-22T01:33:15.639Z,0.36
2023-01-22T01:35:42.195Z,0.37
2023-01-22T01:38:08.817Z,0.35
2023-01-22T01:40:35.537Z,0.38
2023-01-22T01:43:02.003Z,0.38
2023-01-22T01:45:29.925Z,0.39
2023-01-22T01:48:33.757Z,0.38
2023-01-22T01:51:06.639Z,0.38
2023-01-22T01:53:33.298Z,0.37
2023-01-22T01:56:03.093Z,0.35
2023-01-22T01:58:34.091Z,0.34
2023-01-22T02:01:07.884Z,0.32
2023-01-22T02:03:34.589Z,0.33
2023-01-22T02:06:01.006Z,0.31
2023-01-22T02:08:27.700Z,0.28
2023-01-22T02:10:54.346Z,0.28
2023-01-22T02:13:27.450Z,0.26
2023-01-22T02:15:54.376Z,0.24
2023-01-22T02:18:20.785Z,0.22
2023-01-22T02:20:58.803Z,0.21
2023-01-22T02:23:26.294Z,0.18
2023-01-22T02:25:53.231Z,0.19
2023-01-22T02:28:19.750Z,0.18
2023-01-22T02:30:46.562Z,0.15
2023-01-22T02:33:13.089Z,0.14
2023-01-22T02:35:39.492Z,0.15
2023-01-22T02:38:06.067Z,0.12
2023-01-22T02:40:33.789Z,0.12
2023-01-22T02:43:00.473Z,0.12
2023-01-22T02:45:27.039Z,0.12
2023-01-22T02:47:53.526Z,0.12
2023-01-22T02:50:20.541Z,0.13
2023-01-22T02:52:47.034Z,0.12
2023-01-22T02:55:13.501Z,0.13
2023-01-22T02:57:39.940Z,0.15
2023-01-22T03:00:07.111Z,0.13
2023-01-22T03:02:33.628Z,0.14
2023-01-22T03:05:03.518Z,0.14
2023-01-22T03:07:41.934Z,0.14
2023-01-22T03:10:17.496Z,0.10
2023-01-22T03:13:03.627Z,0.11
2023-01-22T03:15:48.903Z,0.13
2023-01-22T03:18:33.755Z,0.14
2023-01-22T03:21:16.281Z,0.13
2023-01-22T03:23:44.911Z,0.12
2023-01-22T03:26:11.547Z,0.13
2023-01-22T03:28:38.256Z,0.13
2023-01-22T03:31:05.748Z,0.13
2023-01-22T03:33:32.491Z,0.13
2023-01-22T03:36:04.315Z,0.15
2023-01-22T03:38:30.917Z,0.15
2023-01-22T03:41:05.452Z,0.16
2023-01-22T03:43:33.148Z,0.17
2023-01-22T03:46:04.447Z,0.20
2023-01-22T03:48:31.072Z,0.20
2023-01-22T03:50:57.823Z,0.20
2023-01-22T03:53:24.263Z,0.21
2023-01-22T03:56:01.629Z,0.23
2023-01-22T03:58:29.984Z,0.25
2023-01-22T04:00:59.839Z,0.23
2023-01-22T04:03:28.170Z,0.23
2023-01-22T04:05:55.337Z,0.25
2023-01-22T04:08:22.136Z,0.24
2023-01-22T04:10:48.684Z,0.23
2023-01-22T04:13:15.165Z,0.24
2023-01-22T04:15:44.719Z,0.25
2023-01-22T04:18:11.888Z,0.24
2023-01-22T04:20:39.239Z,0.23
2023-01-22T04:23:06.524Z,0.19
2023-01-22T04:25:33.293Z,0.22
2023-01-22T04:27:59.818Z,0.22
2023-01-22T04:30:26.304Z,0.22
2023-01-22T04:32:52.752Z,0.19
2023-01-22T04:35:19.222Z,0.17
2023-01-22T04:37:45.690Z,0.17
2023-01-22T04:40:12.509Z,0.17
2023-01-22T04:42:38.991Z,0.16
2023-01-22T04:45:05.939Z,0.17
2023-01-22T04:47:32.490Z,0.14
2023-01-22T04:49:58.982Z,0.16
2023-01-22T04:52:25.405Z,0.17
2023-01-22T04:54:53.304Z,0.17
2023-01-22T04:57:19.748Z,0.17
2023-01-22T04:59:46.182Z,0.19
2023-01-22T05:02:12.692Z,0.18
2023-01-22T05:04:39.107Z,0.18
2023-01-22T05:07:05.598Z,0.20
2023-01-22T05:09:32.049Z,0.18
2023-01-22T05:11:58.542Z,0.17
2023-01-22T05:14:24.990Z,0.17
2023-01-22T05:16:51.424Z,0.16
2023-01-22T05:19:17.851Z,0.17
2023-01-22T05:21:44.299Z,0.18
2023-01-22T05:24:10.813Z,0.16
2023-01-22T05:26:37.270Z,0.16
2023-01-22T05:29:03.821Z,0.15
2023-01-22T05:31:30.592Z,0.13
2023-01-22T05:33:57.226Z,0.14
2023-01-22T05:36:23.647Z,0.14
2023-01-22T05:38:50.074Z,0.14
2023-01-22T05:41:16.492Z,0.16
2023-01-22T05:43:42.938Z,0.17
2023-01-22T05:46:09.409Z,0.17
2023-01-22T05:48:35.852Z,0.18
2023-01-22T05:51:04.706Z,0.17
2023-01-22T05:53:31.171Z,0.18
2023-01-22T05:56:05.075Z,0.19
2023-01-22T05:58:32.532Z,0.20
2023-01-22T06:00:59.205Z,0.20
2023-01-22T06:03:25.691Z,0.19
2023-01-22T06:06:12.305Z,0.20
2023-01-22T06:08:39.407Z,0.21
2023-01-22T06:11:12.807Z,0.19
2023-01-22T06:13:39.704Z,0.20
2023-01-22T06:16:06.948Z,0.18
2023-01-22T06:18:33.536Z,0.19
2023-01-22T06:21:05.623Z,0.18
2023-01-22T06:23:32.306Z,0.19
2023-01-22T06:26:00.036Z,0.19
2023-01-22T06:28:26.534Z,0.19
2023-01-22T06:30:57.295Z,0.20
2023-01-22T06:33:24.505Z,0.20
2023-01-22T06:35:55.334Z,0.19
2023-01-22T06:38:22.735Z,0.20
2023-01-22T06:40:59.987Z,0.20
2023-01-22T06:43:27.992Z,0.19
2023-01-22T06:45:54.940Z,0.20
2023-01-22T06:48:21.458Z,0.21
2023-01-22T06:50:48.053Z,0.23
2023-01-22T06:53:14.597Z,0.22
2023-01-22T06:55:41.053Z,0.24
2023-01-22T06:58:07.463Z,0.23
2023-01-22T07:00:33.877Z,0.25
2023-01-22T07:03:00.381Z,0.24
2023-01-22T07:05:27.447Z,0.26
2023-01-22T07:07:55.131Z,0.24
2023-01-22T07:10:22.332Z,0.27
2023-01-22T07:12:49.951Z,0.26
2023-01-22T07:15:16.517Z,0.26
2023-01-22T07:17:43.081Z,0.28
2023-01-22T07:20:10.178Z,0.28
2023-01-22T07:22:36.597Z,0.28
2023-01-22T07:25:03.421Z,0.30
2023-01-22T07:27:32.395Z,0.30
2023-01-22T07:29:58.874Z,0.31
2023-01-22T07:32:25.346Z,0.29
2023-01-22T07:34:51.941Z,0.32
2023-01-22T07:37:18.991Z,0.30
2023-01-22T07:39:47.607Z,0.30
2023-01-22T07:42:14.083Z,0.32
2023-01-22T07:44:40.579Z,0.34
2023-01-22T07:47:07.119Z,0.32
2023-01-22T07:49:33.640Z,0.32
2023-01-22T07:52:00.239Z,0.33
2023-01-22T07:54:26.790Z,0.32
2023-01-22T07:56:53.241Z,0.33
2023-01-22T07:59:19.762Z,0.33
2023-01-22T08:01:46.334Z,0.34
2023-01-22T08:04:12.810Z,0.36
2023-01-22T08:06:39.365Z,0.34
2023-01-22T08:09:06.586Z,0.33
2023-01-22T08:11:33.029Z,0.34
2023-01-22T08:13:59.470Z,0.35
2023-01-22T08:16:25.913Z,0.37
2023-01-22T08:18:52.400Z,0.36
2023-01-22T08:21:18.852Z,0.36
2023-01-22T08:23:48.887Z,0.37
2023-01-22T08:26:15.564Z,0.37
2023-01-22T08:28:42.080Z,0.40
2023-01-22T08:31:16.493Z,0.40
2023-01-22T08:33:49.413Z,0.42
2023-01-22T08:36:15.849Z,0.43
2023-01-22T08:38:42.287Z,0.42
2023-01-22T08:41:08.775Z,0.42
2023-01-22T08:43:35.250Z,0.44
2023-01-22T08:46:01.701Z,0.44
2023-01-22T08:48:28.124Z,0.43
2023-01-22T08:50:54.580Z,0.45
2023-01-22T08:53:21.020Z,0.44
2023-01-22T08:55:50.780Z,0.46
2023-01-22T08:58:17.992Z,0.45
2023-01-22T09:00:44.655Z,0.48
2023-01-22T09:03:11.226Z,0.50
2023-01-22T09:05:39.898Z,0.48
2023-01-22T09:08:07.807Z,0.48
2023-01-22T09:10:34.375Z,0.48
2023-01-22T09:13:01.252Z,0.51
2023-01-22T09:15:27.990Z,0.52
2023-01-22T09:17:54.620Z,0.54
2023-01-22T09:20:21.390Z,0.54
2023-01-22T09:22:49.366Z,0.53
2023-01-22T09:25:15.957Z,0.55
2023-01-22T09:27:42.446Z,0.55
2023-01-22T09:30:09.693Z,0.56
2023-01-22T09:32:36.469Z,0.58
2023-01-22T09:35:02.996Z,0.59
2023-01-22T09:37:29.443Z,0.61
2023-01-22T09:39:55.946Z,0.63
2023-01-22T09:42:34.973Z,0.62
2023-01-22T09:45:07.115Z,0.64
2023-01-22T09:47:43.994Z,0.62
2023-01-22T09:50:21.648Z,0.62
2023-01-22T09:52:51.648Z,0.65
2023-01-22T09:55:22.122Z,0.67
2023-01-22T09:57:52.028Z,0.67
2023-01-22T10:00:21.960Z,0.67
2023-01-22T10:02:55.924Z,0.70
2023-01-22T10:05:57.712Z,0.67
2023-01-22T10:08:31.283Z,0.68
2023-01-22T10:11:01.030Z,0.70
2023-01-22T10:13:36.257Z,0.68
2023-01-22T10:16:04.081Z,0.74
2023-01-22T10:18:39.615Z,0.71
2023-01-22T10:21:11.937Z,0.73
2023-01-22T10:23:38.465Z,0.74
2023-01-22T10:26:17.594Z,0.75
2023-01-22T10:28:50.269Z,0.79
2023-01-22T10:31:35.284Z,0.80
2023-01-22T10:34:13.048Z,0.78
2023-01-22T10:36:39.553Z,0.79
2023-01-22T10:39:12.243Z,0.80
2023-01-22T10:41:39.934Z,0.80
2023-01-22T10:44:16.556Z,0.79
2023-01-22T10:46:43.450Z,0.81
2023-01-22T10:49:22.732Z,0.78
2023-01-22T10:51:58.095Z,0.79
2023-01-22T10:54:45.945Z,0.83
2023-01-22T10:57:26.908Z,0.83
2023-01-22T11:00:04.195Z,0.84
2023-01-22T11:02:33.057Z,0.87
2023-01-22T11:05:18.428Z,0.85
2023-01-22T11:07:47.523Z,0.88
2023-01-22T11:10:28.052Z,0.89
2023-01-22T11:13:05.397Z,0.89
2023-01-22T11:15:54.232Z,0.91
2023-01-22T11:18:31.389Z,0.93
2023-01-22T11:21:00.625Z,0.92
2023-01-22T11:23:52.350Z,0.93
2023-01-22T11:26:34.075Z,0.95
2023-01-22T11:29:28.246Z,0.98
2023-01-22T11:32:22.649Z,0.99
2023-01-22T11:35:18.459Z,0.99
2023-01-22T11:37:57.161Z,1.00
2023-01-22T11:40:33.137Z,1.04
2023-01-22T11:43:21.011Z,1.02
2023-01-22T11:45:59.689Z,1.06
2023-01-22T11:48:48.180Z,1.04
2023-01-22T11:51:19.715Z,1.07
2023-01-22T11:54:16.901Z,1.08
2023-01-22T11:56:52.560Z,1.07
2023-01-22T11:59:28.396Z,1.10
2023-01-22T12:02:24.161Z,1.10
2023-01-22T12:05:09.493Z,1.13
2023-01-22T12:07:59.524Z,1.13
2023-01-22T12:10:28.983Z,1.13
2023-01-22T12:13:20.381Z,1.15
2023-01-22T12:16:19.171Z,1.14
2023-01-22T12:19:00.888Z,1.14
2023-01-22T12:22:04.931Z,1.15
2023-01-22T12:24:39.471Z,1.15
2023-01-22T12:27:12.185Z,1.14
2023-01-22T12:29:45.105Z,1.14
2023-01-22T12:32:15.233Z,1.13
2023-01-22T12:34:41.729Z,1.12
2023-01-22T12:37:14.863Z,1.12
2023-01-22T12:40:05.426Z,1.13
2023-01-22T12:42:41.464Z,1.15
2023-01-22T12:45:31.161Z,1.13
2023-01-22T12:48:03.535Z,1.16
2023-01-22T12:50:29.959Z,1.17
2023-01-22T12:53:05.285Z,1.15
2023-01-22T12:55:38.203Z,1.17
2023-01-22T12:58:05.026Z,1.16
2023-01-22T13:00:39.102Z,1.17
2023-01-22T13:03:32.906Z,1.19
2023-01-22T13:06:02.078Z,1.20
2023-01-22T13:08:39.110Z,1.20
2023-01-22T13:11:11.454Z,1.22
2023-01-22T13:13:47.264Z,1.27
2023-01-22T13:16:26.878Z,1.26
2023-01-22T13:18:56.651Z,1.30
2023-01-22T13:21:27.732Z,1.31
2023-01-22T13:24:01.870Z,1.32
2023-01-22T13:26:32.145Z,1.36
2023-01-22T13:29:21.055Z,1.34
2023-01-22T13:31:56.175Z,1.33
2023-01-22T13:34:23.137Z,1.32
2023-01-22T13:36:51.395Z,1.30
2023-01-22T13:39:23.965Z,1.31
2023-01-22T13:41:53.075Z,1.31
2023-01-22T13:44:32.766Z,1.29
2023-01-22T13:46:59.496Z,1.32
2023-01-22T13:49:31.913Z,1.29
2023-01-22T13:52:05.822Z,1.29
2023-01-22T13:54:45.230Z,1.30
2023-01-22T13:57:20.106Z,1.29
2023-01-22T13:59:53.823Z,1.31
2023-01-22T14:02:21.402Z,1.31
2023-01-22T14:04:48.857Z,1.31
2023-01-22T14:07:26.957Z,1.32
2023-01-22T14:09:54.095Z,1.32
2023-01-22T14:12:24.261Z,1.33
2023-01-22T14:14:51.518Z,1.33
2023-01-22T14:17:34.197Z,1.31
2023-01-22T14:20:02.424Z,1.32
2023-01-22T14:22:28.898Z,1.32
2023-01-22T14:24:55.454Z,1.31
2023-01-22T14:27:23.411Z,1.32
2023-01-22T14:29:50.688Z,1.33
2023-01-22T14:32:17.140Z,1.33
2023-01-22T14:34:43.631Z,1.35
2023-01-22T14:37:13.781Z,1.32
2023-01-22T14:39:40.240Z,1.33
2023-01-22T14:42:06.710Z,1.31
2023-01-22T14:44:33.244Z,1.32
2023-01-22T14:46:59.702Z,1.33
2023-01-22T14:49:26.179Z,1.32
2023-01-22T14:51:53.690Z,1.33
2023-01-22T14:54:20.232Z,1.35
2023-01-22T14:56:46.678Z,1.33
2023-01-22T14:59:13.102Z,1.34
2023-01-22T15:01:39.521Z,1.34
2023-01-22T15:04:06.501Z,1.34
2023-01-22T15:06:33.099Z,1.33
2023-01-22T15:09:00.115Z,1.33
2023-01-22T15:11:26.588Z,1.34
2023-01-22T15:13:55.163Z,1.34
2023-01-22T15:16:21.621Z,1.35
2023-01-22T15:18:48.074Z,1.33
2023-01-22T15:21:14.620Z,1.33
2023-01-22T15:23:41.012Z,1.34
2023-01-22T15:26:21.968Z,1.35
2023-01-22T15:28:48.405Z,1.33
2023-01-22T15:31:14.937Z,1.34
2023-01-22T15:33:41.450Z,1.33
2023-01-22T15:36:08.625Z,1.34
2023-01-22T15:38:35.171Z,1.33
2023-01-22T15:41:32.444Z,1.33
2023-01-22T15:44:01.288Z,1.34
2023-01-22T15:46:38.566Z,1.35
2023-01-22T15:49:08.059Z,1.34
2023-01-22T15:51:35.453Z,1.33
2023-01-22T15:54:04.057Z,1.31
2023-01-22T15:56:36.364Z,1.34
2023-01-22T15:59:03.955Z,1.32
2023-01-22T16:01:30.455Z,1.34
2023-01-22T16:03:57.156Z,1.34
2023-01-22T16:06:28.466Z,1.32
2023-01-22T16:09:00.260Z,1.34
2023-01-22T16:11:28.641Z,1.32
2023-01-22T16:13:55.904Z,1.32
2023-01-22T16:16:25.980Z,1.35
2023-01-22T16:18:53.774Z,1.35
2023-01-22T16:21:22.020Z,1.33
2023-01-22T16:23:51.993Z,1.33
2023-01-22T16:26:22.041Z,1.33
2023-01-22T16:28:57.131Z,1.31
2023-01-22T16:31:29.016Z,1.35
2023-01-22T16:34:00.779Z,1.33
2023-01-22T16:36:29.621Z,1.34
2023-01-22T16:38:56.464Z,1.32
2023-01-22T16:41:28.388Z,1.31
2023-01-22T16:44:07.130Z,1.31
2023-01-22T16:46:35.845Z,1.31
2023-01-22T16:49:08.130Z,1.33
2023-01-22T16:51:40.713Z,1.31
2023-01-22T16:54:07.839Z,1.32
2023-01-22T16:56:35.116Z,1.32
2023-01-22T16:59:01.657Z,1.31
2023-01-22T17:01:31.315Z,1.31
2023-01-22T17:03:57.823Z,1.31
2023-01-22T17:06:42.754Z,1.31
2023-01-22T17:09:15.398Z,1.31
2023-01-22T17:11:43.604Z,1.33
2023-01-22T17:14:10.506Z,1.32
2023-01-22T17:16:38.425Z,1.30
2023-01-22T17:19:05.317Z,1.28
2023-01-22T17:21:31.845Z,1.30
2023-01-22T17:23:58.349Z,1.32
2023-01-22T17:26:24.814Z,1.32
2023-01-22T17:28:51.248Z,1.31
2023-01-22T17:31:22.181Z,1.30
2023-01-22T17:33:49.525Z,1.30
2023-01-22T17:36:19.098Z,1.29
2023-01-22T17:38:45.805Z,1.29
2023-01-22T17:41:15.823Z,1.28
2023-01-22T17:43:43.766Z,1.28
2023-01-22T17:46:16.547Z,1.29
2023-01-22T17:48:44.304Z,1.30
2023-01-22T17:51:13.376Z,1.32
2023-01-22T17:53:42.219Z,1.29
2023-01-22T17:56:16.550Z,1.29
2023-01-22T17:58:45.979Z,1.30
2023-01-22T18:01:15.078Z,1.30
2023-01-22T18:03:41.901Z,1.30
2023-01-22T18:06:08.868Z,1.31
2023-01-22T18:08:38.517Z,1.31
2023-01-22T18:11:14.638Z,1.32
2023-01-22T18:13:41.836Z,1.30
2023-01-22T18:16:12.095Z,1.32
2023-01-22T18:18:39.291Z,1.33
2023-01-22T18:21:07.060Z,1.33
2023-01-22T18:23:33.622Z,1.34
2023-01-22T18:26:04.024Z,1.33
2023-01-22T18:28:31.148Z,1.34
2023-01-22T18:31:06.104Z,1.35
2023-01-22T18:33:34.231Z,1.34
2023-01-22T18:36:00.758Z,1.34
2023-01-22T18:38:28.504Z,1.37
2023-01-22T18:40:56.264Z,1.35
2023-01-22T18:43:23.010Z,1.36
2023-01-22T18:45:49.510Z,1.34
2023-01-22T18:48:16.480Z,1.33
2023-01-22T18:50:43.009Z,1.34
2023-01-22T18:53:09.793Z,1.34
2023-01-22T18:55:36.890Z,1.34
2023-01-22T18:58:08.715Z,1.33
2023-01-22T19:00:37.126Z,1.35
2023-01-22T19:03:04.081Z,1.35
2023-01-22T19:05:30.656Z,1.35
2023-01-22T19:07:57.059Z,1.36
2023-01-22T19:10:23.947Z,1.38
2023-01-22T19:12:50.475Z,1.36
2023-01-22T19:15:17.434Z,1.37
2023-01-22T19:17:44.194Z,1.39
2023-01-22T19:20:13.038Z,1.39
2023-01-22T19:22:39.453Z,1.37
2023-01-22T19:25:06.818Z,1.38
2023-01-22T19:27:35.542Z,1.37
2023-01-22T19:30:02.378Z,1.38
2023-01-22T19:32:30.343Z,1.38
2023-01-22T19:34:57.682Z,1.37
2023-01-22T19:37:25.114Z,1.36
2023-01-22T19:39:51.733Z,1.39
2023-01-22T19:42:18.480Z,1.38
2023-01-22T19:44:45.402Z,1.41
2023-01-22T19:47:12.317Z,1.38
2023-01-22T19:49:39.768Z,1.41
2023-01-22T19:52:06.328Z,1.39
2023-01-22T19:54:32.836Z,1.40
2023-01-22T19:56:59.315Z,1.41
2023-01-22T19:59:25.810Z,1.41
2023-01-22T20:01:52.585Z,1.42
2023-01-22T20:04:23.986Z,1.40
2023-01-22T20:06:55.120Z,1.40
2023-01-22T20:09:22.091Z,1.42
2023-01-22T20:11:52.855Z,1.44
2023-01-22T20:14:24.173Z,1.45
2023-01-22T20:16:51.243Z,1.45
2023-01-22T20:19:18.331Z,1.46
2023-01-22T20:21:44.814Z,1.45
2023-01-22T20:24:11.272Z,1.44
2023-01-22T20:26:37.761Z,1.45
2023-01-22T20:29:04.617Z,1.47
2023-01-22T20:31:31.319Z,1.47
2023-01-22T20:33:58.170Z,1.48
2023-01-22T20:36:27.781Z,1.48
2023-01-22T20:38:55.092Z,1.48
2023-01-22T20:41:22.972Z,1.49
2023-01-22T20:43:50.096Z,1.49
2023-01-22T20:46:20.001Z,1.49
2023-01-22T20:48:47.292Z,1.50
2023-01-22T20:51:17.271Z,1.50
2023-01-22T20:53:45.377Z,1.51
2023-01-22T20:56:15.094Z,1.51
2023-01-22T20:58:42.328Z,1.52
2023-01-22T21:01:15.583Z,1.51
2023-01-22T21:03:43.047Z,1.52
2023-01-22T21:06:13.592Z,1.52
2023-01-22T21:08:41.599Z,1.51
2023-01-22T21:11:11.274Z,1.53
2023-01-22T21:13:39.855Z,1.54
2023-01-22T21:16:15.311Z,1.54
2023-01-22T21:18:44.716Z,1.54
2023-01-22T21:21:21.839Z,1.55
2023-01-22T21:23:50.780Z,1.55
2023-01-22T21:26:19.671Z,1.56
2023-01-22T21:28:47.958Z,1.56
2023-01-22T21:31:17.365Z,1.57
2023-01-22T21:33:44.533Z,1.58
2023-01-22T21:36:12.665Z,1.60
2023-01-22T21:38:39.537Z,1.63
2023-01-22T21:41:08.825Z,1.62
2023-01-22T21:43:54.354Z,1.63
2023-01-22T21:46:27.596Z,1.65
2023-01-22T21:48:58.259Z,1.64
2023-01-22T21:51:29.447Z,1.65
2023-01-22T21:53:58.210Z,1.64
2023-01-22T21:56:25.427Z,1.64
2023-01-22T21:58:52.033Z,1.64
2023-01-22T22:01:21.736Z,1.66
2023-01-22T22:03:48.565Z,1.66
2023-01-22T22:06:15.126Z,1.67
2023-01-22T22:08:43.439Z,1.67
2023-01-22T22:11:12.444Z,1.66
2023-01-22T22:13:39.088Z,1.65
2023-01-22T22:16:07.997Z,1.65
2023-01-22T22:18:34.857Z,1.65
2023-01-22T22:21:04.825Z,1.64
2023-01-22T22:23:31.850Z,1.64
2023-01-22T22:25:58.925Z,1.63
2023-01-22T22:28:25.589Z,1.64
2023-01-22T22:30:52.440Z,1.65
2023-01-22T22:33:19.328Z,1.66
2023-01-22T22:35:47.349Z,1.65
2023-01-22T22:38:14.792Z,1.64
2023-01-22T22:40:41.781Z,1.66
2023-01-22T22:43:08.996Z,1.65
2023-01-22T22:45:37.653Z,1.66
2023-01-22T22:48:05.306Z,1.65
2023-01-22T22:50:31.863Z,1.66
2023-01-22T22:52:58.362Z,1.65
2023-01-22T22:55:26.601Z,1.67
2023-01-22T22:57:53.313Z,1.68
2023-01-22T23:00:20.242Z,1.68
2023-01-22T23:02:47.044Z,1.66
2023-01-22T23:05:13.509Z,1.65
2023-01-22T23:07:39.981Z,1.66
2023-01-22T23:10:07.687Z,1.66
2023-01-22T23:12:34.102Z,1.68
2023-01-22T23:15:00.564Z,1.68
2023-01-22T23:17:27.027Z,1.70
2023-01-22T23:19:53.500Z,1.70
2023-01-22T23:22:19.903Z,1.69
2023-01-22T23:24:47.163Z,1.70
2023-01-22T23:27:13.618Z,1.69
2023-01-22T23:29:40.082Z,1.71
2023-01-22T23:32:06.522Z,1.72
2023-01-22T23:34:32.952Z,1.72
2023-01-22T23:36:59.421Z,1.69
2023-01-22T23:39:25.857Z,1.71
2023-01-22T23:41:52.302Z,1.70
2023-01-22T23:44:18.862Z,1.73
2023-01-22T23:46:45.773Z,1.74
2023-01-22T23:49:12.747Z,1.73
2023-01-22T23:51:42.086Z,1.72
2023-01-22T23:54:09.003Z,1.73
2023-01-22T23:56:35.525Z,1.73
2023-01-22T23:59:01.967Z,1.73
